Terminal Aerodrome Forecast
Issued by NWS Cleveland, OH

Home | Current Version | Previous Version | Text Only | Print | Product List | Glossary Off
Versions: 1 2 3 4 5 6 7 8 9 10 11 12 13 14 15 16 17 18 19 20 21 22 23 24 25 26

000
FTUS41 KCLE 221700
TAFCLE
TAF
KCLE 221737Z 2218/2324 24015G25KT P6SM VCSH BKN045 OVC060
     FM230000 26012KT P6SM BKN040
     FM230800 27010KT P6SM BKN028
     FM231400 29015G25KT P6SM BKN035 OVC045=

USA.gov is the U.S. government's official web portal to all federal, state and local government web resources and services.